sensor_id;sensor_type;location;lat;lon;timestamp;P1;durP1;ratioP1;P2;durP2;ratioP2
8159;SDS011;27404;52.398;9.646;2022-12-17T00:01:33;43.37;;;24.17;;
8159;SDS011;27404;52.398;9.646;2022-12-17T00:04:17;39.60;;;23.47;;
8159;SDS011;27404;52.398;9.646;2022-12-17T00:07:01;41.10;;;23.13;;
8159;SDS011;27404;52.398;9.646;2022-12-17T00:09:44;40.63;;;23.20;;
8159;SDS011;27404;52.398;9.646;2022-12-17T00:12:28;41.63;;;23.93;;
8159;SDS011;27404;52.398;9.646;2022-12-17T00:15:12;45.53;;;24.93;;
8159;SDS011;27404;52.398;9.646;2022-12-17T00:18:03;44.53;;;23.93;;
8159;SDS011;27404;52.398;9.646;2022-12-17T00:20:52;42.03;;;23.87;;
8159;SDS011;27404;52.398;9.646;2022-12-17T00:23:37;37.80;;;21.13;;
8159;SDS011;27404;52.398;9.646;2022-12-17T00:26:21;47.20;;;24.13;;
8159;SDS011;27404;52.398;9.646;2022-12-17T00:29:05;45.33;;;22.43;;
8159;SDS011;27404;52.398;9.646;2022-12-17T00:31:48;40.43;;;23.13;;
8159;SDS011;27404;52.398;9.646;2022-12-17T00:34:32;43.23;;;23.27;;
8159;SDS011;27404;52.398;9.646;2022-12-17T00:37:16;42.83;;;23.60;;
8159;SDS011;27404;52.398;9.646;2022-12-17T00:40:00;45.43;;;22.37;;
8159;SDS011;27404;52.398;9.646;2022-12-17T00:42:44;41.80;;;23.17;;
8159;SDS011;27404;52.398;9.646;2022-12-17T00:45:28;41.93;;;23.87;;
8159;SDS011;27404;52.398;9.646;2022-12-17T00:48:12;47.63;;;23.80;;
8159;SDS011;27404;52.398;9.646;2022-12-17T00:50:56;42.90;;;23.67;;
8159;SDS011;27404;52.398;9.646;2022-12-17T00:53:40;39.90;;;22.00;;
8159;SDS011;27404;52.398;9.646;2022-12-17T00:56:24;38.67;;;22.00;;
8159;SDS011;27404;52.398;9.646;2022-12-17T00:59:08;39.83;;;21.73;;
8159;SDS011;27404;52.398;9.646;2022-12-17T01:01:52;44.03;;;23.37;;
8159;SDS011;27404;52.398;9.646;2022-12-17T01:04:35;45.80;;;22.73;;
8159;SDS011;27404;52.398;9.646;2022-12-17T01:07:19;45.27;;;23.20;;
8159;SDS011;27404;52.398;9.646;2022-12-17T01:10:03;41.93;;;22.10;;
8159;SDS011;27404;52.398;9.646;2022-12-17T01:12:48;39.27;;;22.30;;
8159;SDS011;27404;52.398;9.646;2022-12-17T01:15:33;40.70;;;23.07;;
8159;SDS011;27404;52.398;9.646;2022-12-17T01:18:17;38.03;;;22.30;;
8159;SDS011;27404;52.398;9.646;2022-12-17T01:21:02;41.13;;;23.10;;
8159;SDS011;27404;52.398;9.646;2022-12-17T01:23:46;49.67;;;24.13;;
8159;SDS011;27404;52.398;9.646;2022-12-17T01:26:30;41.80;;;22.77;;
8159;SDS011;27404;52.398;9.646;2022-12-17T01:29:14;40.33;;;22.43;;
8159;SDS011;27404;52.398;9.646;2022-12-17T01:31:57;38.93;;;22.50;;
8159;SDS011;27404;52.398;9.646;2022-12-17T01:34:41;39.10;;;23.03;;
8159;SDS011;27404;52.398;9.646;2022-12-17T01:37:25;38.77;;;22.30;;
8159;SDS011;27404;52.398;9.646;2022-12-17T01:40:09;43.17;;;23.87;;
8159;SDS011;27404;52.398;9.646;2022-12-17T01:42:54;42.10;;;24.57;;
8159;SDS011;27404;52.398;9.646;2022-12-17T01:45:38;39.20;;;22.13;;
8159;SDS011;27404;52.398;9.646;2022-12-17T01:48:29;39.90;;;22.40;;
8159;SDS011;27404;52.398;9.646;2022-12-17T01:51:19;45.70;;;24.63;;
8159;SDS011;27404;52.398;9.646;2022-12-17T01:54:03;39.77;;;22.60;;
8159;SDS011;27404;52.398;9.646;2022-12-17T01:56:47;41.70;;;23.47;;
8159;SDS011;27404;52.398;9.646;2022-12-17T01:59:37;41.07;;;23.07;;
8159;SDS011;27404;52.398;9.646;2022-12-17T02:02:27;42.93;;;23.37;;
8159;SDS011;27404;52.398;9.646;2022-12-17T02:05:12;38.43;;;21.57;;
8159;SDS011;27404;52.398;9.646;2022-12-17T02:17:48;43.27;;;23.17;;
8159;SDS011;27404;52.398;9.646;2022-12-17T02:20:38;40.13;;;21.90;;
8159;SDS011;27404;52.398;9.646;2022-12-17T02:26:50;39.83;;;21.63;;
8159;SDS011;27404;52.398;9.646;2022-12-17T02:29:43;40.27;;;22.13;;
8159;SDS011;27404;52.398;9.646;2022-12-17T02:32:32;38.80;;;22.00;;
8159;SDS011;27404;52.398;9.646;2022-12-17T02:35:21;45.80;;;24.13;;
8159;SDS011;27404;52.398;9.646;2022-12-17T02:38:21;45.20;;;22.47;;
8159;SDS011;27404;52.398;9.646;2022-12-17T02:41:07;43.07;;;22.27;;
8159;SDS011;27404;52.398;9.646;2022-12-17T02:43:55;38.03;;;21.50;;
8159;SDS011;27404;52.398;9.646;2022-12-17T02:46:40;42.67;;;21.73;;
8159;SDS011;27404;52.398;9.646;2022-12-17T02:49:25;39.80;;;22.50;;
8159;SDS011;27404;52.398;9.646;2022-12-17T02:52:09;39.57;;;22.03;;
8159;SDS011;27404;52.398;9.646;2022-12-17T02:54:55;40.57;;;21.93;;
8159;SDS011;27404;52.398;9.646;2022-12-17T02:57:39;37.37;;;20.97;;
8159;SDS011;27404;52.398;9.646;2022-12-17T03:00:23;39.97;;;22.67;;
8159;SDS011;27404;52.398;9.646;2022-12-17T03:03:06;40.47;;;22.67;;
8159;SDS011;27404;52.398;9.646;2022-12-17T03:05:50;40.53;;;22.10;;
8159;SDS011;27404;52.398;9.646;2022-12-17T03:08:34;36.50;;;20.67;;
8159;SDS011;27404;52.398;9.646;2022-12-17T03:11:18;39.67;;;21.30;;
8159;SDS011;27404;52.398;9.646;2022-12-17T03:14:02;37.20;;;21.33;;
8159;SDS011;27404;52.398;9.646;2022-12-17T03:16:46;41.70;;;21.90;;
8159;SDS011;27404;52.398;9.646;2022-12-17T03:19:30;39.40;;;20.57;;
8159;SDS011;27404;52.398;9.646;2022-12-17T03:22:14;39.40;;;22.53;;
8159;SDS011;27404;52.398;9.646;2022-12-17T03:24:58;42.47;;;22.30;;
8159;SDS011;27404;52.398;9.646;2022-12-17T03:27:42;40.80;;;22.77;;
8159;SDS011;27404;52.398;9.646;2022-12-17T03:30:25;39.33;;;21.27;;
8159;SDS011;27404;52.398;9.646;2022-12-17T03:33:09;40.70;;;21.27;;
8159;SDS011;27404;52.398;9.646;2022-12-17T03:35:53;40.80;;;21.83;;
8159;SDS011;27404;52.398;9.646;2022-12-17T03:38:37;39.83;;;20.70;;
8159;SDS011;27404;52.398;9.646;2022-12-17T03:41:21;38.07;;;21.00;;
8159;SDS011;27404;52.398;9.646;2022-12-17T03:44:05;40.37;;;21.40;;
8159;SDS011;27404;52.398;9.646;2022-12-17T03:46:49;42.87;;;21.53;;
8159;SDS011;27404;52.398;9.646;2022-12-17T03:49:33;43.13;;;21.57;;
8159;SDS011;27404;52.398;9.646;2022-12-17T03:52:17;42.13;;;20.67;;
8159;SDS011;27404;52.398;9.646;2022-12-17T03:55:01;42.07;;;21.73;;
8159;SDS011;27404;52.398;9.646;2022-12-17T03:57:45;40.00;;;21.67;;
8159;SDS011;27404;52.398;9.646;2022-12-17T04:00:28;40.57;;;21.57;;
8159;SDS011;27404;52.398;9.646;2022-12-17T04:03:12;39.20;;;21.73;;
8159;SDS011;27404;52.398;9.646;2022-12-17T04:05:56;34.50;;;20.27;;
8159;SDS011;27404;52.398;9.646;2022-12-17T04:08:40;38.77;;;21.17;;
8159;SDS011;27404;52.398;9.646;2022-12-17T04:11:24;41.17;;;22.00;;
8159;SDS011;27404;52.398;9.646;2022-12-17T04:14:08;41.10;;;23.00;;
8159;SDS011;27404;52.398;9.646;2022-12-17T04:16:52;43.40;;;23.40;;
8159;SDS011;27404;52.398;9.646;2022-12-17T04:19:36;43.50;;;21.37;;
8159;SDS011;27404;52.398;9.646;2022-12-17T04:22:20;38.67;;;21.90;;
8159;SDS011;27404;52.398;9.646;2022-12-17T04:25:04;37.70;;;21.10;;
8159;SDS011;27404;52.398;9.646;2022-12-17T04:27:48;37.70;;;20.63;;
8159;SDS011;27404;52.398;9.646;2022-12-17T04:30:32;35.50;;;20.50;;
8159;SDS011;27404;52.398;9.646;2022-12-17T04:33:16;38.37;;;21.23;;
8159;SDS011;27404;52.398;9.646;2022-12-17T04:35:59;43.87;;;22.00;;
8159;SDS011;27404;52.398;9.646;2022-12-17T04:38:43;35.60;;;20.90;;
8159;SDS011;27404;52.398;9.646;2022-12-17T04:41:27;32.93;;;19.40;;
8159;SDS011;27404;52.398;9.646;2022-12-17T04:44:11;36.10;;;19.30;;
8159;SDS011;27404;52.398;9.646;2022-12-17T04:46:55;37.40;;;20.17;;
8159;SDS011;27404;52.398;9.646;2022-12-17T04:49:39;35.07;;;18.53;;
8159;SDS011;27404;52.398;9.646;2022-12-17T04:52:23;35.07;;;19.13;;
8159;SDS011;27404;52.398;9.646;2022-12-17T04:55:07;33.73;;;18.30;;
8159;SDS011;27404;52.398;9.646;2022-12-17T04:57:51;34.77;;;18.50;;
8159;SDS011;27404;52.398;9.646;2022-12-17T05:00:35;35.17;;;18.77;;
8159;SDS011;27404;52.398;9.646;2022-12-17T05:03:19;31.03;;;18.30;;
8159;SDS011;27404;52.398;9.646;2022-12-17T05:06:03;36.03;;;18.40;;
8159;SDS011;27404;52.398;9.646;2022-12-17T05:08:47;35.37;;;17.40;;
8159;SDS011;27404;52.398;9.646;2022-12-17T05:11:30;35.00;;;17.77;;
8159;SDS011;27404;52.398;9.646;2022-12-17T05:14:15;31.73;;;18.67;;
8159;SDS011;27404;52.398;9.646;2022-12-17T05:16:59;35.37;;;18.97;;
8159;SDS011;27404;52.398;9.646;2022-12-17T05:19:43;37.57;;;19.43;;
8159;SDS011;27404;52.398;9.646;2022-12-17T05:22:27;39.13;;;19.97;;
8159;SDS011;27404;52.398;9.646;2022-12-17T05:25:11;37.23;;;19.33;;
8159;SDS011;27404;52.398;9.646;2022-12-17T05:27:55;37.37;;;20.13;;
8159;SDS011;27404;52.398;9.646;2022-12-17T05:30:39;37.10;;;19.63;;
8159;SDS011;27404;52.398;9.646;2022-12-17T05:33:23;37.83;;;21.00;;
8159;SDS011;27404;52.398;9.646;2022-12-17T05:36:07;36.20;;;20.27;;
8159;SDS011;27404;52.398;9.646;2022-12-17T05:38:54;36.50;;;20.33;;
8159;SDS011;27404;52.398;9.646;2022-12-17T05:41:38;41.03;;;20.63;;
8159;SDS011;27404;52.398;9.646;2022-12-17T05:44:22;44.80;;;20.13;;
8159;SDS011;27404;52.398;9.646;2022-12-17T05:47:06;38.10;;;20.60;;
8159;SDS011;27404;52.398;9.646;2022-12-17T05:49:50;41.50;;;21.40;;
8159;SDS011;27404;52.398;9.646;2022-12-17T05:52:34;34.73;;;19.60;;
8159;SDS011;27404;52.398;9.646;2022-12-17T05:55:18;46.97;;;21.60;;
8159;SDS011;27404;52.398;9.646;2022-12-17T05:58:03;39.57;;;20.17;;
8159;SDS011;27404;52.398;9.646;2022-12-17T06:00:48;36.87;;;18.33;;
8159;SDS011;27404;52.398;9.646;2022-12-17T06:03:32;41.50;;;20.37;;
8159;SDS011;27404;52.398;9.646;2022-12-17T06:06:16;35.67;;;19.77;;
8159;SDS011;27404;52.398;9.646;2022-12-17T06:09:00;35.67;;;19.03;;
8159;SDS011;27404;52.398;9.646;2022-12-17T06:11:44;39.10;;;20.87;;
8159;SDS011;27404;52.398;9.646;2022-12-17T06:14:28;35.47;;;19.77;;
8159;SDS011;27404;52.398;9.646;2022-12-17T06:17:12;37.57;;;19.50;;
8159;SDS011;27404;52.398;9.646;2022-12-17T06:19:55;35.63;;;18.70;;
8159;SDS011;27404;52.398;9.646;2022-12-17T06:22:39;37.40;;;19.80;;
8159;SDS011;27404;52.398;9.646;2022-12-17T06:25:43;37.47;;;19.53;;
8159;SDS011;27404;52.398;9.646;2022-12-17T06:28:27;33.80;;;18.73;;
8159;SDS011;27404;52.398;9.646;2022-12-17T06:31:11;35.90;;;18.40;;
8159;SDS011;27404;52.398;9.646;2022-12-17T06:33:55;30.27;;;17.93;;
8159;SDS011;27404;52.398;9.646;2022-12-17T06:36:39;40.70;;;18.97;;
8159;SDS011;27404;52.398;9.646;2022-12-17T06:39:23;34.73;;;18.10;;
8159;SDS011;27404;52.398;9.646;2022-12-17T06:42:07;32.80;;;17.93;;
8159;SDS011;27404;52.398;9.646;2022-12-17T06:44:51;33.03;;;18.00;;
8159;SDS011;27404;52.398;9.646;2022-12-17T06:47:35;33.90;;;18.27;;
8159;SDS011;27404;52.398;9.646;2022-12-17T06:50:19;35.40;;;18.07;;
8159;SDS011;27404;52.398;9.646;2022-12-17T06:53:04;37.43;;;18.83;;
8159;SDS011;27404;52.398;9.646;2022-12-17T06:55:50;35.17;;;18.53;;
8159;SDS011;27404;52.398;9.646;2022-12-17T06:58:35;36.43;;;19.33;;
8159;SDS011;27404;52.398;9.646;2022-12-17T07:01:20;40.53;;;19.43;;
8159;SDS011;27404;52.398;9.646;2022-12-17T07:04:04;41.23;;;20.17;;
8159;SDS011;27404;52.398;9.646;2022-12-17T07:06:48;37.97;;;18.87;;
8159;SDS011;27404;52.398;9.646;2022-12-17T07:09:32;42.57;;;22.17;;
8159;SDS011;27404;52.398;9.646;2022-12-17T07:12:16;42.87;;;20.97;;
8159;SDS011;27404;52.398;9.646;2022-12-17T07:15:00;39.37;;;21.20;;
8159;SDS011;27404;52.398;9.646;2022-12-17T07:17:57;39.57;;;19.37;;
8159;SDS011;27404;52.398;9.646;2022-12-17T07:20:42;42.73;;;21.33;;
8159;SDS011;27404;52.398;9.646;2022-12-17T07:23:27;38.53;;;19.90;;
8159;SDS011;27404;52.398;9.646;2022-12-17T07:26:11;38.00;;;20.83;;
8159;SDS011;27404;52.398;9.646;2022-12-17T07:28:55;40.27;;;20.20;;
8159;SDS011;27404;52.398;9.646;2022-12-17T07:31:39;41.53;;;20.30;;
8159;SDS011;27404;52.398;9.646;2022-12-17T07:34:23;37.00;;;19.53;;
8159;SDS011;27404;52.398;9.646;2022-12-17T07:37:07;40.27;;;19.80;;
8159;SDS011;27404;52.398;9.646;2022-12-17T07:39:51;37.87;;;19.87;;
8159;SDS011;27404;52.398;9.646;2022-12-17T07:42:35;35.10;;;18.70;;
8159;SDS011;27404;52.398;9.646;2022-12-17T07:45:19;36.27;;;18.53;;
8159;SDS011;27404;52.398;9.646;2022-12-17T07:48:03;33.80;;;18.33;;
8159;SDS011;27404;52.398;9.646;2022-12-17T07:50:47;37.23;;;18.73;;
8159;SDS011;27404;52.398;9.646;2022-12-17T07:53:32;37.47;;;18.77;;
8159;SDS011;27404;52.398;9.646;2022-12-17T07:56:16;35.83;;;18.47;;
8159;SDS011;27404;52.398;9.646;2022-12-17T07:59:00;31.63;;;18.60;;
8159;SDS011;27404;52.398;9.646;2022-12-17T08:01:44;33.67;;;17.20;;
8159;SDS011;27404;52.398;9.646;2022-12-17T08:04:28;37.10;;;18.03;;
8159;SDS011;27404;52.398;9.646;2022-12-17T08:07:12;34.63;;;18.23;;
8159;SDS011;27404;52.398;9.646;2022-12-17T08:09:56;34.33;;;17.10;;
8159;SDS011;27404;52.398;9.646;2022-12-17T08:12:39;35.47;;;18.40;;
8159;SDS011;27404;52.398;9.646;2022-12-17T08:15:23;34.67;;;17.70;;
8159;SDS011;27404;52.398;9.646;2022-12-17T08:18:07;36.77;;;18.30;;
8159;SDS011;27404;52.398;9.646;2022-12-17T08:20:51;31.43;;;16.63;;
8159;SDS011;27404;52.398;9.646;2022-12-17T08:23:35;33.10;;;17.17;;
8159;SDS011;27404;52.398;9.646;2022-12-17T08:26:19;32.17;;;16.43;;
8159;SDS011;27404;52.398;9.646;2022-12-17T08:29:03;32.73;;;16.93;;
8159;SDS011;27404;52.398;9.646;2022-12-17T08:31:46;30.60;;;15.53;;
8159;SDS011;27404;52.398;9.646;2022-12-17T08:34:30;36.67;;;17.73;;
8159;SDS011;27404;52.398;9.646;2022-12-17T08:37:14;33.93;;;16.83;;
8159;SDS011;27404;52.398;9.646;2022-12-17T08:39:58;41.27;;;19.70;;
8159;SDS011;27404;52.398;9.646;2022-12-17T08:42:42;29.67;;;17.53;;
8159;SDS011;27404;52.398;9.646;2022-12-17T08:45:26;34.03;;;17.57;;
8159;SDS011;27404;52.398;9.646;2022-12-17T08:48:10;33.17;;;17.00;;
8159;SDS011;27404;52.398;9.646;2022-12-17T08:50:54;34.50;;;17.63;;
8159;SDS011;27404;52.398;9.646;2022-12-17T08:53:37;34.40;;;16.90;;
8159;SDS011;27404;52.398;9.646;2022-12-17T08:56:21;31.93;;;16.70;;
8159;SDS011;27404;52.398;9.646;2022-12-17T08:59:05;38.03;;;18.37;;
8159;SDS011;27404;52.398;9.646;2022-12-17T09:01:49;32.77;;;16.23;;
8159;SDS011;27404;52.398;9.646;2022-12-17T09:04:33;28.30;;;15.80;;
8159;SDS011;27404;52.398;9.646;2022-12-17T09:07:17;33.67;;;17.77;;
8159;SDS011;27404;52.398;9.646;2022-12-17T09:10:01;29.80;;;15.13;;
8159;SDS011;27404;52.398;9.646;2022-12-17T09:12:45;32.60;;;15.90;;
8159;SDS011;27404;52.398;9.646;2022-12-17T09:15:29;34.90;;;16.63;;
8159;SDS011;27404;52.398;9.646;2022-12-17T09:18:16;31.33;;;16.67;;
8159;SDS011;27404;52.398;9.646;2022-12-17T09:21:01;29.97;;;16.60;;
8159;SDS011;27404;52.398;9.646;2022-12-17T09:23:50;31.30;;;17.50;;
8159;SDS011;27404;52.398;9.646;2022-12-17T09:26:34;34.57;;;17.80;;
8159;SDS011;27404;52.398;9.646;2022-12-17T09:29:18;30.40;;;17.10;;
8159;SDS011;27404;52.398;9.646;2022-12-17T09:32:02;34.53;;;18.43;;
8159;SDS011;27404;52.398;9.646;2022-12-17T09:34:47;29.63;;;16.03;;
8159;SDS011;27404;52.398;9.646;2022-12-17T09:37:31;36.97;;;17.27;;
8159;SDS011;27404;52.398;9.646;2022-12-17T09:40:15;29.90;;;16.70;;
8159;SDS011;27404;52.398;9.646;2022-12-17T09:49:14;30.97;;;17.00;;
8159;SDS011;27404;52.398;9.646;2022-12-17T09:52:07;29.47;;;15.37;;
8159;SDS011;27404;52.398;9.646;2022-12-17T09:55:01;27.63;;;15.20;;
8159;SDS011;27404;52.398;9.646;2022-12-17T09:57:46;30.70;;;15.13;;
8159;SDS011;27404;52.398;9.646;2022-12-17T10:00:32;28.53;;;16.47;;
8159;SDS011;27404;52.398;9.646;2022-12-17T10:03:20;26.10;;;14.40;;
8159;SDS011;27404;52.398;9.646;2022-12-17T10:06:15;31.33;;;15.90;;
8159;SDS011;27404;52.398;9.646;2022-12-17T10:09:05;28.40;;;15.97;;
8159;SDS011;27404;52.398;9.646;2022-12-17T10:11:54;29.87;;;16.57;;
8159;SDS011;27404;52.398;9.646;2022-12-17T10:14:39;26.73;;;15.80;;
8159;SDS011;27404;52.398;9.646;2022-12-17T10:17:23;34.27;;;16.53;;
8159;SDS011;27404;52.398;9.646;2022-12-17T10:20:16;26.27;;;15.67;;
8159;SDS011;27404;52.398;9.646;2022-12-17T10:23:04;34.43;;;17.90;;
8159;SDS011;27404;52.398;9.646;2022-12-17T10:25:49;26.57;;;16.00;;
8159;SDS011;27404;52.398;9.646;2022-12-17T10:28:36;28.27;;;15.77;;
8159;SDS011;27404;52.398;9.646;2022-12-17T10:31:20;32.90;;;16.37;;
8159;SDS011;27404;52.398;9.646;2022-12-17T10:34:06;28.43;;;16.17;;
8159;SDS011;27404;52.398;9.646;2022-12-17T10:36:51;33.13;;;14.83;;
8159;SDS011;27404;52.398;9.646;2022-12-17T10:39:36;28.17;;;15.30;;
8159;SDS011;27404;52.398;9.646;2022-12-17T10:45:33;27.13;;;15.93;;
8159;SDS011;27404;52.398;9.646;2022-12-17T10:48:27;26.63;;;14.67;;
8159;SDS011;27404;52.398;9.646;2022-12-17T10:54:05;28.33;;;14.63;;
8159;SDS011;27404;52.398;9.646;2022-12-17T10:56:58;24.63;;;14.03;;
8159;SDS011;27404;52.398;9.646;2022-12-17T10:59:43;26.90;;;13.97;;
8159;SDS011;27404;52.398;9.646;2022-12-17T11:02:28;25.07;;;13.73;;
8159;SDS011;27404;52.398;9.646;2022-12-17T11:05:14;25.40;;;13.67;;
8159;SDS011;27404;52.398;9.646;2022-12-17T11:08:05;26.43;;;14.13;;
8159;SDS011;27404;52.398;9.646;2022-12-17T11:10:50;25.60;;;13.83;;
8159;SDS011;27404;52.398;9.646;2022-12-17T11:13:39;22.57;;;12.50;;
8159;SDS011;27404;52.398;9.646;2022-12-17T11:16:31;25.13;;;13.53;;
8159;SDS011;27404;52.398;9.646;2022-12-17T11:19:24;21.63;;;12.67;;
8159;SDS011;27404;52.398;9.646;2022-12-17T11:22:24;21.00;;;13.00;;
8159;SDS011;27404;52.398;9.646;2022-12-17T11:25:25;22.90;;;12.93;;
8159;SDS011;27404;52.398;9.646;2022-12-17T11:28:34;21.30;;;12.73;;
8159;SDS011;27404;52.398;9.646;2022-12-17T11:37:08;20.93;;;12.93;;
8159;SDS011;27404;52.398;9.646;2022-12-17T11:40:17;21.53;;;12.97;;
8159;SDS011;27404;52.398;9.646;2022-12-17T11:43:17;26.03;;;14.10;;
8159;SDS011;27404;52.398;9.646;2022-12-17T11:52:26;17.77;;;10.07;;
8159;SDS011;27404;52.398;9.646;2022-12-17T11:58:47;17.77;;;9.77;;
8159;SDS011;27404;52.398;9.646;2022-12-17T12:01:45;21.30;;;11.57;;
8159;SDS011;27404;52.398;9.646;2022-12-17T12:07:40;14.20;;;9.07;;
8159;SDS011;27404;52.398;9.646;2022-12-17T12:13:52;18.43;;;9.17;;
8159;SDS011;27404;52.398;9.646;2022-12-17T12:19:59;17.77;;;9.10;;
8159;SDS011;27404;52.398;9.646;2022-12-17T12:23:17;15.77;;;8.53;;
8159;SDS011;27404;52.398;9.646;2022-12-17T12:26:13;15.90;;;8.87;;
8159;SDS011;27404;52.398;9.646;2022-12-17T12:32:39;14.30;;;8.70;;
8159;SDS011;27404;52.398;9.646;2022-12-17T12:35:31;13.03;;;7.73;;
8159;SDS011;27404;52.398;9.646;2022-12-17T12:38:19;17.10;;;9.17;;
8159;SDS011;27404;52.398;9.646;2022-12-17T12:41:16;16.87;;;9.07;;
8159;SDS011;27404;52.398;9.646;2022-12-17T12:44:19;14.13;;;8.73;;
8159;SDS011;27404;52.398;9.646;2022-12-17T12:47:09;13.70;;;7.80;;
8159;SDS011;27404;52.398;9.646;2022-12-17T12:52:57;16.37;;;8.27;;
8159;SDS011;27404;52.398;9.646;2022-12-17T12:55:42;17.03;;;9.27;;
8159;SDS011;27404;52.398;9.646;2022-12-17T12:58:27;18.50;;;10.13;;
8159;SDS011;27404;52.398;9.646;2022-12-17T13:01:15;16.90;;;10.00;;
8159;SDS011;27404;52.398;9.646;2022-12-17T13:04:01;15.77;;;9.97;;
8159;SDS011;27404;52.398;9.646;2022-12-17T13:06:58;17.77;;;8.83;;
8159;SDS011;27404;52.398;9.646;2022-12-17T13:14:44;15.53;;;9.00;;
8159;SDS011;27404;52.398;9.646;2022-12-17T13:19:58;13.80;;;7.93;;
8159;SDS011;27404;52.398;9.646;2022-12-17T13:22:26;13.80;;;7.60;;
8159;SDS011;27404;52.398;9.646;2022-12-17T13:24:55;15.47;;;7.90;;
8159;SDS011;27404;52.398;9.646;2022-12-17T13:35:38;14.10;;;7.70;;
8159;SDS011;27404;52.398;9.646;2022-12-17T13:43:32;14.70;;;7.57;;
8159;SDS011;27404;52.398;9.646;2022-12-17T13:46:03;12.40;;;7.53;;
8159;SDS011;27404;52.398;9.646;2022-12-17T13:48:28;11.87;;;6.87;;
8159;SDS011;27404;52.398;9.646;2022-12-17T13:50:55;14.53;;;6.40;;
8159;SDS011;27404;52.398;9.646;2022-12-17T13:53:25;11.67;;;6.20;;
8159;SDS011;27404;52.398;9.646;2022-12-17T13:55:53;11.20;;;5.77;;
8159;SDS011;27404;52.398;9.646;2022-12-17T13:58:20;10.33;;;5.27;;
8159;SDS011;27404;52.398;9.646;2022-12-17T14:00:48;7.67;;;4.90;;
8159;SDS011;27404;52.398;9.646;2022-12-17T14:03:15;8.37;;;4.47;;
8159;SDS011;27404;52.398;9.646;2022-12-17T14:05:46;9.23;;;4.37;;
8159;SDS011;27404;52.398;9.646;2022-12-17T14:08:16;8.77;;;3.97;;
8159;SDS011;27404;52.398;9.646;2022-12-17T14:10:49;12.97;;;5.07;;
8159;SDS011;27404;52.398;9.646;2022-12-17T14:13:16;16.17;;;7.63;;
8159;SDS011;27404;52.398;9.646;2022-12-17T14:15:49;18.13;;;7.30;;
8159;SDS011;27404;52.398;9.646;2022-12-17T14:18:17;18.80;;;6.87;;
8159;SDS011;27404;52.398;9.646;2022-12-17T14:20:45;14.27;;;5.93;;
8159;SDS011;27404;52.398;9.646;2022-12-17T14:25:44;11.60;;;6.00;;
8159;SDS011;27404;52.398;9.646;2022-12-17T14:28:24;14.83;;;5.90;;
8159;SDS011;27404;52.398;9.646;2022-12-17T14:33:39;11.53;;;6.07;;
8159;SDS011;27404;52.398;9.646;2022-12-17T14:36:06;9.43;;;6.03;;
8159;SDS011;27404;52.398;9.646;2022-12-17T14:39:00;10.23;;;5.53;;
8159;SDS011;27404;52.398;9.646;2022-12-17T14:41:35;11.57;;;6.83;;
8159;SDS011;27404;52.398;9.646;2022-12-17T14:44:23;13.63;;;6.53;;
8159;SDS011;27404;52.398;9.646;2022-12-17T14:46:53;11.47;;;6.40;;
8159;SDS011;27404;52.398;9.646;2022-12-17T14:49:31;11.30;;;6.23;;
8159;SDS011;27404;52.398;9.646;2022-12-17T14:51:56;13.60;;;7.03;;
8159;SDS011;27404;52.398;9.646;2022-12-17T14:56:56;15.37;;;7.57;;
8159;SDS011;27404;52.398;9.646;2022-12-17T15:04:34;21.17;;;10.93;;
8159;SDS011;27404;52.398;9.646;2022-12-17T15:07:02;17.90;;;10.13;;
8159;SDS011;27404;52.398;9.646;2022-12-17T15:09:34;17.60;;;10.67;;
8159;SDS011;27404;52.398;9.646;2022-12-17T15:12:02;19.97;;;11.57;;
8159;SDS011;27404;52.398;9.646;2022-12-17T15:14:27;20.73;;;11.10;;
8159;SDS011;27404;52.398;9.646;2022-12-17T15:16:53;22.30;;;12.03;;
8159;SDS011;27404;52.398;9.646;2022-12-17T15:19:20;20.53;;;11.73;;
8159;SDS011;27404;52.398;9.646;2022-12-17T15:21:46;23.13;;;12.17;;
8159;SDS011;27404;52.398;9.646;2022-12-17T15:24:17;27.47;;;12.63;;
8159;SDS011;27404;52.398;9.646;2022-12-17T15:26:44;23.20;;;12.43;;
8159;SDS011;27404;52.398;9.646;2022-12-17T15:29:11;20.57;;;12.20;;
8159;SDS011;27404;52.398;9.646;2022-12-17T15:31:36;23.77;;;12.67;;
8159;SDS011;27404;52.398;9.646;2022-12-17T15:34:02;20.63;;;11.90;;
8159;SDS011;27404;52.398;9.646;2022-12-17T15:36:29;21.63;;;13.33;;
8159;SDS011;27404;52.398;9.646;2022-12-17T15:38:57;23.87;;;13.13;;
8159;SDS011;27404;52.398;9.646;2022-12-17T15:41:23;19.97;;;12.27;;
8159;SDS011;27404;52.398;9.646;2022-12-17T15:44:07;23.87;;;13.33;;
8159;SDS011;27404;52.398;9.646;2022-12-17T15:46:33;23.93;;;13.17;;
8159;SDS011;27404;52.398;9.646;2022-12-17T15:48:58;21.33;;;12.73;;
8159;SDS011;27404;52.398;9.646;2022-12-17T15:51:24;21.90;;;12.63;;
8159;SDS011;27404;52.398;9.646;2022-12-17T15:53:49;23.97;;;13.17;;
8159;SDS011;27404;52.398;9.646;2022-12-17T15:56:25;29.90;;;14.43;;
8159;SDS011;27404;52.398;9.646;2022-12-17T15:58:55;27.80;;;13.83;;
8159;SDS011;27404;52.398;9.646;2022-12-17T16:01:21;27.07;;;13.17;;
8159;SDS011;27404;52.398;9.646;2022-12-17T16:03:47;22.67;;;12.70;;
8159;SDS011;27404;52.398;9.646;2022-12-17T16:06:12;23.00;;;12.60;;
8159;SDS011;27404;52.398;9.646;2022-12-17T16:08:38;20.90;;;12.07;;
8159;SDS011;27404;52.398;9.646;2022-12-17T16:11:11;23.07;;;12.73;;
8159;SDS011;27404;52.398;9.646;2022-12-17T16:13:38;22.20;;;12.57;;
8159;SDS011;27404;52.398;9.646;2022-12-17T16:16:04;22.07;;;11.83;;
8159;SDS011;27404;52.398;9.646;2022-12-17T16:18:30;23.30;;;12.87;;
8159;SDS011;27404;52.398;9.646;2022-12-17T16:21:00;22.73;;;13.10;;
8159;SDS011;27404;52.398;9.646;2022-12-17T16:23:27;24.43;;;13.67;;
8159;SDS011;27404;52.398;9.646;2022-12-17T16:25:59;24.73;;;13.63;;
8159;SDS011;27404;52.398;9.646;2022-12-17T16:28:26;27.47;;;13.67;;
8159;SDS011;27404;52.398;9.646;2022-12-17T16:31:05;24.80;;;13.13;;
8159;SDS011;27404;52.398;9.646;2022-12-17T16:33:36;25.70;;;12.87;;
8159;SDS011;27404;52.398;9.646;2022-12-17T16:36:03;20.20;;;11.97;;
8159;SDS011;27404;52.398;9.646;2022-12-17T16:38:30;24.90;;;13.87;;
8159;SDS011;27404;52.398;9.646;2022-12-17T16:40:56;27.77;;;12.53;;
8159;SDS011;27404;52.398;9.646;2022-12-17T16:43:24;24.93;;;13.13;;
8159;SDS011;27404;52.398;9.646;2022-12-17T16:45:51;23.83;;;12.00;;
8159;SDS011;27404;52.398;9.646;2022-12-17T16:48:18;26.33;;;13.73;;
8159;SDS011;27404;52.398;9.646;2022-12-17T16:50:45;21.27;;;13.00;;
8159;SDS011;27404;52.398;9.646;2022-12-17T16:53:12;26.63;;;14.13;;
8159;SDS011;27404;52.398;9.646;2022-12-17T16:55:41;24.67;;;14.27;;
8159;SDS011;27404;52.398;9.646;2022-12-17T16:58:11;27.70;;;14.90;;
8159;SDS011;27404;52.398;9.646;2022-12-17T17:00:37;28.53;;;14.23;;
8159;SDS011;27404;52.398;9.646;2022-12-17T17:03:03;29.17;;;14.07;;
8159;SDS011;27404;52.398;9.646;2022-12-17T17:05:30;27.03;;;13.47;;
8159;SDS011;27404;52.398;9.646;2022-12-17T17:07:57;25.97;;;13.57;;
8159;SDS011;27404;52.398;9.646;2022-12-17T17:10:23;24.47;;;12.93;;
8159;SDS011;27404;52.398;9.646;2022-12-17T17:12:52;26.20;;;14.17;;
8159;SDS011;27404;52.398;9.646;2022-12-17T17:15:18;25.30;;;13.40;;
8159;SDS011;27404;52.398;9.646;2022-12-17T17:17:44;26.40;;;14.57;;
8159;SDS011;27404;52.398;9.646;2022-12-17T17:20:10;27.57;;;13.90;;
8159;SDS011;27404;52.398;9.646;2022-12-17T17:22:36;27.00;;;13.57;;
8159;SDS011;27404;52.398;9.646;2022-12-17T17:25:05;31.67;;;15.67;;
8159;SDS011;27404;52.398;9.646;2022-12-17T17:27:31;30.63;;;15.00;;
8159;SDS011;27404;52.398;9.646;2022-12-17T17:29:56;26.93;;;14.40;;
8159;SDS011;27404;52.398;9.646;2022-12-17T17:32:23;26.13;;;14.73;;